Time;durP1;ratioP1;P1;durP2;ratioP2;P2;SDS_P1;SDS_P2;PMS_P1;PMS_P2;Temp;Humidity;BMP_temperature;BMP_pressure;BME280_temperature;BME280_humidity;BME280_pressure;Samples;Min_cycle;Max_cycle;Signal;HPM_P1;HPM_P2
2021/11/14 00:01:59;;;;;;;23.23;9.43;;;;;;;6.19;80.98;99941.47;4843456;29;20054;-63
2021/11/14 00:04:33;;;;;;;19.23;10.15;;;;;;;6.20;80.38;99944.03;4843648;29;20404;-63
2021/11/14 00:07:06;;;;;;;18.70;9.40;;;;;;;6.14;80.38;99946.44;4844134;29;20140;-62
2021/11/14 00:09:35;;;;;;;16.98;9.50;;;;;;;6.21;80.73;99945.75;4843258;29;20128;-62
2021/11/14 00:12:12;;;;;;;15.15;8.23;;;;;;;6.23;80.43;99944.09;4843293;29;20557;-63
2021/11/14 00:14:41;;;;;;;18.02;9.10;;;;;;;6.19;80.44;99942.28;4843240;29;20526;-63
2021/11/14 00:17:14;;;;;;;21.67;9.35;;;;;;;6.22;80.37;99942.38;4843252;29;20054;-63
2021/11/14 00:19:45;;;;;;;20.58;9.40;;;;;;;6.22;80.52;99952.50;4843238;29;20081;-63
2021/11/14 00:22:18;;;;;;;19.55;8.82;;;;;;;6.22;80.67;99938.97;4843696;29;20552;-63
2021/11/14 00:24:51;;;;;;;19.60;9.15;;;;;;;6.19;80.46;99937.22;4843246;29;20057;-63
2021/11/14 00:27:20;;;;;;;18.65;9.43;;;;;;;6.27;80.50;99945.84;4843408;29;20057;-63
2021/11/14 00:29:50;;;;;;;25.40;10.95;;;;;;;6.26;80.65;99939.09;4843377;29;20061;-63
2021/11/14 00:32:20;;;;;;;16.58;8.82;;;;;;;6.22;80.66;99941.50;4842463;29;20069;-62
2021/11/14 00:34:51;;;;;;;18.60;9.13;;;;;;;6.25;80.44;99944.97;4842966;29;20050;-62
2021/11/14 00:37:24;;;;;;;21.52;10.00;;;;;;;6.20;80.59;99944.03;4843320;29;20407;-62
2021/11/14 00:39:53;;;;;;;21.65;9.98;;;;;;;6.18;80.71;99939.75;4843281;29;20045;-62
2021/11/14 00:42:22;;;;;;;20.45;9.38;;;;;;;6.19;80.02;99947.38;4842876;29;20050;-62
2021/11/14 00:44:55;;;;;;;23.60;9.43;;;;;;;6.23;80.76;99944.09;4842949;29;20054;-63
2021/11/14 00:47:24;;;;;;;19.55;9.55;;;;;;;6.23;80.50;99954.22;4842893;29;20054;-62
2021/11/14 00:49:55;;;;;;;21.48;9.00;;;;;;;6.20;80.60;99949.09;4843118;29;20042;-62
2021/11/14 00:52:27;;;;;;;25.17;10.48;;;;;;;6.20;80.80;99949.09;4843016;29;20134;-62
2021/11/14 00:54:59;;;;;;;23.42;9.93;;;;;;;6.15;80.47;99953.19;4843064;29;20488;-62
2021/11/14 00:57:33;;;;;;;19.20;10.10;;;;;;;6.16;80.99;99952.41;4842880;29;20488;-62
2021/11/14 01:00:02;;;;;;;22.63;10.20;;;;;;;6.17;80.56;99949.00;4843080;29;20465;-62
2021/11/14 01:02:32;;;;;;;23.23;10.52;;;;;;;6.16;80.86;99951.53;4842696;29;20054;-62
2021/11/14 01:05:10;;;;;;;25.50;10.57;;;;;;;6.15;80.95;99948.13;4842995;29;20576;-63
2021/11/14 01:07:39;;;;;;;21.17;9.95;;;;;;;6.11;81.03;99948.91;4842778;29;20565;-63
2021/11/14 01:10:11;;;;;;;17.08;9.23;;;;;;;6.15;81.16;99950.66;4842965;29;20501;-63
2021/11/14 01:12:44;;;;;;;24.48;10.68;;;;;;;6.21;81.23;99950.81;4842897;29;20123;-62
2021/11/14 01:15:14;;;;;;;22.42;10.63;;;;;;;6.16;81.07;99954.94;4842608;29;20054;-63
2021/11/14 01:17:45;;;;;;;23.67;10.63;;;;;;;6.16;81.22;99957.47;4842912;29;20129;-63
2021/11/14 01:20:23;;;;;;;30.52;11.50;;;;;;;6.17;80.73;99954.09;4842879;29;20066;-63
2021/11/14 01:22:54;;;;;;;24.33;11.52;;;;;;;6.21;80.65;99966.03;4842188;29;20107;-63
2021/11/14 01:25:23;;;;;;;29.10;12.02;;;;;;;6.18;81.45;99958.34;4842567;29;20042;-63
2021/11/14 01:27:55;;;;;;;34.00;12.30;;;;;;;6.24;80.71;99955.91;4842791;29;20072;-63
2021/11/14 01:30:27;;;;;;;21.23;10.43;;;;;;;6.22;80.92;99952.50;4842569;29;20119;-63
2021/11/14 01:32:58;;;;;;;27.45;12.80;;;;;;;6.27;81.17;99956.00;4842487;29;20133;-62
2021/11/14 01:35:30;;;;;;;21.92;10.23;;;;;;;6.22;81.08;99949.97;4842933;29;20534;-63
2021/11/14 01:38:00;;;;;;;25.35;10.95;;;;;;;6.29;80.47;99951.81;4842517;29;20062;-63
2021/11/14 01:40:33;;;;;;;27.98;10.88;;;;;;;6.16;80.84;99944.78;4842448;29;20054;-63
2021/11/14 01:43:02;;;;;;;23.27;10.40;;;;;;;6.02;80.85;99947.00;4844461;29;20062;-62
2021/11/14 01:45:36;;;;;;;22.50;10.85;;;;;;;6.09;80.93;99951.38;4845866;29;20129;-63
2021/11/14 01:48:09;;;;;;;27.35;12.13;;;;;;;6.15;81.19;99950.66;4846116;29;20054;-63
2021/11/14 01:50:44;;;;;;;21.40;10.55;;;;;;;6.17;81.05;99943.94;4846026;29;20061;-63
2021/11/14 01:53:16;;;;;;;25.92;11.23;;;;;;;6.19;81.15;99949.91;4845981;29;20101;-62
2021/11/14 01:55:47;;;;;;;20.77;10.13;;;;;;;6.15;81.02;99950.66;4845631;29;20054;-62
2021/11/14 01:58:19;;;;;;;20.40;10.77;;;;;;;6.08;81.12;99948.84;4845638;29;20054;-62
2021/11/14 02:04:16;;;;;;;20.67;9.45;;;;;;;6.14;81.12;99943.06;4825483;29;20391;-70
2021/11/14 02:07:08;;;;;;;22.10;9.63;;;;;;;6.23;81.01;99941.56;4827048;29;20120;-69
2021/11/14 02:09:40;;;;;;;23.30;10.02;;;;;;;6.29;81.26;99938.28;4807340;29;20058;-70
2021/11/14 02:12:10;;;;;;;18.10;8.98;;;;;;;6.25;80.81;99937.38;4806923;29;20153;-69
2021/11/14 02:14:41;;;;;;;19.75;9.25;;;;;;;6.24;81.16;99940.72;4806674;29;20059;-70
2021/11/14 02:17:11;;;;;;;21.23;10.00;;;;;;;6.24;80.87;99940.72;4807277;29;20058;-69
2021/11/14 02:19:43;;;;;;;18.60;9.45;;;;;;;6.21;80.75;99940.69;4806848;29;20057;-70
2021/11/14 02:22:17;;;;;;;18.63;9.90;;;;;;;6.18;81.05;99945.69;4806858;29;20059;-70
2021/11/14 02:24:49;;;;;;;20.48;9.82;;;;;;;6.20;80.60;99946.56;4806879;29;20066;-70
2021/11/14 02:27:19;;;;;;;24.08;10.93;;;;;;;6.18;80.43;99949.88;4805324;29;20078;-70
2021/11/14 02:29:48;;;;;;;24.08;10.27;;;;;;;6.26;81.28;99954.31;4826429;29;20585;-69
2021/11/14 02:32:24;;;;;;;20.42;9.93;;;;;;;6.27;80.69;99945.84;4826698;29;20059;-70
2021/11/14 02:35:11;;;;;;;19.23;9.68;;;;;;;6.20;80.51;99959.22;4826533;29;20126;-69
2021/11/14 02:37:42;;;;;;;20.15;8.77;;;;;;;6.00;80.54;99950.34;4826693;29;20062;-70
2021/11/14 02:40:14;;;;;;;20.20;10.07;;;;;;;5.75;80.74;99955.66;4826845;29;20496;-69
2021/11/14 02:42:44;;;;;;;19.50;10.10;;;;;;;5.67;81.22;99964.75;4826189;29;20515;-70
2021/11/14 02:45:18;;;;;;;21.45;9.43;;;;;;;5.71;81.68;99969.91;4825679;29;20081;-69
2021/11/14 02:47:48;;;;;;;22.95;9.52;;;;;;;5.82;81.61;99965.09;4826510;29;20066;-70
2021/11/14 02:50:18;;;;;;;20.77;9.50;;;;;;;5.78;82.17;99960.81;4826082;29;20520;-70
2021/11/14 02:52:50;;;;;;;19.92;10.23;;;;;;;5.79;81.94;99960.81;4826712;29;20394;-70
2021/11/14 02:55:22;;;;;;;19.52;9.90;;;;;;;5.79;82.08;99959.97;4825384;29;20056;-70
2021/11/14 02:57:55;;;;;;;25.50;10.40;;;;;;;5.78;82.14;99968.41;4826186;29;20150;-70
2021/11/14 03:00:29;;;;;;;17.83;8.95;;;;;;;5.81;82.46;99963.38;4825940;29;20050;-69
2021/11/14 03:02:59;;;;;;;20.77;10.63;;;;;;;5.82;82.01;99960.03;4826260;29;20408;-70
2021/11/14 03:05:32;;;;;;;21.75;10.32;;;;;;;5.97;82.10;99960.41;4826201;29;20060;-70
2021/11/14 03:08:06;;;;;;;23.30;10.63;;;;;;;6.05;82.11;99963.97;4826460;29;20565;-70
2021/11/14 03:10:36;;;;;;;22.58;9.68;;;;;;;6.10;82.03;99972.50;4826120;29;20050;-70
2021/11/14 03:13:08;;;;;;;;;;;;;;;6.09;81.85;99975.88;4826769;29;20042;-70
2021/11/14 03:15:43;;;;;;;20.88;9.90;;;;;;;6.07;81.56;99967.38;4825977;29;20017;-69
2021/11/14 03:18:16;;;;;;;22.35;10.15;;;;;;;6.12;81.82;99968.34;4826001;29;20128;-70
2021/11/14 03:20:51;;;;;;;19.90;9.82;;;;;;;6.14;81.40;99974.31;4826286;29;20475;-70
2021/11/14 03:23:43;;;;;;;20.52;9.93;;;;;;;6.16;81.99;99972.66;4825902;29;20047;-70
2021/11/14 03:26:13;;;;;;;22.00;10.77;;;;;;;6.24;81.54;99981.25;4805800;29;20503;-70
2021/11/14 03:28:45;;;;;;;23.08;12.00;;;;;;;6.15;81.40;99976.00;4805921;29;20104;-70
2021/11/14 03:31:17;;;;;;;24.55;11.68;;;;;;;6.09;81.25;99980.97;4805845;29;20055;-70
2021/11/14 03:33:48;;;;;;;26.83;12.05;;;;;;;6.03;81.32;99978.28;4805641;29;20133;-70
2021/11/14 03:36:20;;;;;;;30.08;13.50;;;;;;;6.11;81.67;99981.84;4805461;29;20054;-70
2021/11/14 03:38:54;;;;;;;26.27;12.68;;;;;;;6.17;81.14;99984.50;4805740;29;20110;-70
2021/11/14 03:41:26;;;;;;;27.05;12.13;;;;;;;6.13;81.15;99972.59;4806158;29;20120;-69
2021/11/14 03:43:58;;;;;;;29.00;12.65;;;;;;;6.11;81.12;99969.16;4811686;29;20046;-69
2021/11/14 03:46:30;;;;;;;26.63;11.77;;;;;;;6.09;81.37;99975.88;4825825;29;20572;-70
2021/11/14 03:49:00;;;;;;;21.95;10.95;;;;;;;6.07;81.64;99977.50;4825963;29;20497;-70
2021/11/14 03:51:35;;;;;;;25.08;10.85;;;;;;;5.95;81.22;99987.41;4825805;29;20054;-70
2021/11/14 03:54:06;;;;;;;24.40;10.73;;;;;;;5.84;81.69;99982.09;4825545;29;20552;-70
2021/11/14 03:56:36;;;;;;;22.48;10.32;;;;;;;5.87;81.24;99978.75;4333942;23;20053;-61
2021/11/14 03:59:08;;;;;;;;;;;;;;;5.81;81.46;99979.44;4843963;29;20061;-61
2021/11/14 04:01:40;;;;;;;24.83;11.60;;;;;;;5.73;81.98;99964.91;4843561;29;19924;-62
2021/11/14 04:04:10;;;;;;;25.48;10.73;;;;;;;5.70;82.31;99969.88;4843561;29;20106;-62
2021/11/14 04:06:40;;;;;;;22.25;10.18;;;;;;;5.84;82.03;99974.47;4842197;29;20118;-62
2021/11/14 04:09:11;;;;;;;23.95;10.63;;;;;;;5.85;82.11;99970.28;4843264;29;20054;-62
2021/11/14 04:11:40;;;;;;;21.83;11.23;;;;;;;5.88;82.14;99970.31;4842926;29;20106;-63
2021/11/14 04:14:12;;;;;;;25.98;11.25;;;;;;;5.85;82.39;99970.28;4843301;29;20064;-61
2021/11/14 04:16:44;;;;;;;25.35;10.40;;;;;;;5.83;81.92;99971.91;4843211;29;20488;-61
2021/11/14 04:19:16;;;;;;;21.80;10.85;;;;;;;5.84;82.20;99978.66;4842984;29;20057;-62
2021/11/14 04:21:49;;;;;;;23.80;11.15;;;;;;;5.84;81.85;99986.25;4843200;29;20052;-62
2021/11/14 04:24:20;;;;;;;27.80;12.27;;;;;;;5.87;82.29;99983.81;4843515;29;20114;-62
2021/11/14 04:26:49;;;;;;;26.05;10.90;;;;;;;5.97;81.78;99975.63;4842807;29;20062;-62
2021/11/14 04:29:19;;;;;;;21.88;10.93;;;;;;;6.03;82.02;99970.66;4842796;29;20153;-62
2021/11/14 04:31:48;;;;;;;20.25;10.05;;;;;;;6.07;82.14;99973.31;4843349;29;20102;-62
2021/11/14 04:34:23;;;;;;;18.75;9.23;;;;;;;6.07;82.07;99992.72;4842673;29;20038;-62
2021/11/14 04:36:53;;;;;;;23.92;10.77;;;;;;;6.16;82.00;99982.81;4842897;29;20152;-62
2021/11/14 04:39:24;;;;;;;22.95;11.07;;;;;;;6.13;81.74;99995.41;4843010;29;20492;-62
2021/11/14 04:41:53;;;;;;;24.60;11.60;;;;;;;6.08;81.95;99999.50;4842635;29;20052;-62
2021/11/14 04:44:26;;;;;;;23.13;10.98;;;;;;;6.08;81.73;100000.38;4842970;29;20058;-62
2021/11/14 04:46:55;;;;;;;24.45;10.93;;;;;;;6.08;81.38;99995.28;4842211;29;20053;-62
2021/11/14 04:49:25;;;;;;;20.02;10.23;;;;;;;6.12;81.76;100000.44;4842915;29;20489;-62
2021/11/14 04:51:54;;;;;;;25.90;10.73;;;;;;;6.07;81.42;100005.38;4842839;29;20458;-61
2021/11/14 04:54:28;;;;;;;27.45;10.70;;;;;;;6.06;81.22;100002.00;4842868;29;20049;-61
2021/11/14 04:56:57;;;;;;;21.92;10.35;;;;;;;6.10;81.43;100008.00;4841710;29;20146;-62
2021/11/14 04:59:30;;;;;;;21.05;10.02;;;;;;;6.16;81.59;100008.13;4841491;29;20049;-62
2021/11/14 05:02:02;;;;;;;26.05;12.10;;;;;;;6.12;81.47;100016.47;4843088;29;20057;-62
2021/11/14 05:04:32;;;;;;;20.48;10.15;;;;;;;6.16;81.70;100017.41;4842751;29;20050;-62
2021/11/14 05:07:01;;;;;;;24.63;11.02;;;;;;;6.22;81.57;100022.59;4842682;29;20107;-62
2021/11/14 05:09:32;;;;;;;22.85;10.70;;;;;;;6.17;81.82;100025.03;4841554;29;20046;-62
2021/11/14 05:12:02;;;;;;;23.23;9.70;;;;;;;6.17;81.83;100029.28;4842474;29;20045;-62
2021/11/14 05:14:32;;;;;;;22.35;9.70;;;;;;;6.17;81.54;100030.09;4842934;29;20046;-62
2021/11/14 05:17:01;;;;;;;20.95;10.15;;;;;;;6.25;81.51;100033.69;4842368;29;20057;-62
2021/11/14 05:19:33;;;;;;;22.65;10.90;;;;;;;6.27;81.31;100032.03;4846321;29;20102;-62
2021/11/14 05:22:03;;;;;;;23.00;9.95;;;;;;;6.31;81.43;100038.03;4845230;29;20054;-63
2021/11/14 05:24:34;;;;;;;22.10;10.32;;;;;;;6.25;81.13;100035.34;4846424;29;20050;-62
2021/11/14 05:27:09;;;;;;;20.60;9.88;;;;;;;6.23;81.10;100040.41;4845799;29;20061;-63
2021/11/14 05:29:38;;;;;;;20.60;9.52;;;;;;;6.26;81.44;100037.06;4846475;29;20054;-62
2021/11/14 05:32:11;;;;;;;23.58;11.00;;;;;;;6.23;80.92;100040.41;4845765;29;20049;-62
2021/11/14 05:34:40;;;;;;;22.05;10.85;;;;;;;6.22;81.03;100037.81;4846037;29;20388;-62
2021/11/14 05:37:10;;;;;;;23.48;10.35;;;;;;;6.20;81.17;100035.25;4845587;29;20599;-62
2021/11/14 05:39:41;;;;;;;25.13;11.25;;;;;;;6.24;81.05;100031.13;4845833;29;20058;-62
2021/11/14 05:42:11;;;;;;;22.67;11.60;;;;;;;6.24;80.50;100042.09;4845326;29;20128;-62
2021/11/14 05:44:43;;;;;;;23.00;11.93;;;;;;;6.25;81.04;100043.81;4845823;29;20054;-63
2021/11/14 05:47:16;;;;;;;22.00;10.27;;;;;;;6.18;81.36;100054.63;4845822;29;20095;-61
2021/11/14 05:49:48;;;;;;;24.77;11.35;;;;;;;6.19;81.31;100058.88;4844426;29;20552;-61
2021/11/14 05:52:24;;;;;;;26.00;10.82;;;;;;;6.21;81.05;100064.84;4845791;29;20054;-62
2021/11/14 05:54:55;;;;;;;23.85;10.95;;;;;;;6.28;80.91;100063.31;4845730;29;20068;-63
2021/11/14 05:57:25;;;;;;;25.00;10.88;;;;;;;6.25;80.96;100069.16;4845286;29;20062;-63
2021/11/14 06:00:00;;;;;;;20.20;10.45;;;;;;;6.20;80.86;100070.72;4845477;29;20046;-62
2021/11/14 06:02:37;;;;;;;22.50;11.30;;;;;;;5.56;81.28;99966.19;4846177;29;20140;-62
2021/11/14 06:05:14;;;;;;;22.48;10.25;;;;;;;5.96;81.42;100035.56;4845839;29;20504;-63
2021/11/14 06:07:49;;;;;;;21.45;10.85;;;;;;;5.61;81.05;99979.81;4844582;29;20050;-62
2021/11/14 06:10:23;;;;;;;19.98;10.52;;;;;;;6.27;81.52;100076.78;4845128;29;20050;-62
2021/11/14 06:12:53;;;;;;;19.35;9.85;;;;;;;6.28;80.73;100084.44;4844855;29;20137;-62
2021/11/14 06:15:25;;;;;;;20.40;10.25;;;;;;;6.29;81.55;100088.66;4845619;29;20061;-62
2021/11/14 06:17:58;;;;;;;23.52;10.35;;;;;;;6.24;80.80;100095.31;4844937;29;20094;-62
2021/11/14 06:20:30;;;;;;;21.40;10.68;;;;;;;6.10;80.82;100104.25;4844916;29;20126;-62
2021/11/14 06:23:02;;;;;;;27.48;11.32;;;;;;;6.09;81.79;100103.41;4845735;29;20385;-62
2021/11/14 06:25:34;;;;;;;23.38;10.88;;;;;;;6.16;80.99;100113.69;4844762;29;20130;-61
2021/11/14 06:28:03;;;;;;;25.13;11.27;;;;;;;6.18;81.57;100110.38;4844290;29;20157;-62
2021/11/14 06:30:33;;;;;;;20.42;10.60;;;;;;;6.25;81.86;100107.16;4844177;29;20062;-62
2021/11/14 06:33:02;;;;;;;24.48;10.38;;;;;;;6.26;81.44;100113.97;4844838;29;20099;-62
2021/11/14 06:35:35;;;;;;;18.42;10.43;;;;;;;6.14;81.42;100121.28;4844553;29;20110;-62
2021/11/14 06:38:05;;;;;;;18.83;9.65;;;;;;;6.02;81.33;100120.97;4844820;29;20050;-62
2021/11/14 06:40:39;;;;;;;19.15;10.20;;;;;;;6.03;81.31;100126.06;4844473;29;20519;-62
2021/11/14 06:43:09;;;;;;;21.55;10.38;;;;;;;6.06;81.88;100130.38;4844454;29;20053;-62
2021/11/14 06:45:38;;;;;;;22.50;10.43;;;;;;;6.14;81.66;100138.16;4845035;29;20053;-62
2021/11/14 06:48:07;;;;;;;22.30;10.35;;;;;;;6.25;81.97;100132.50;4844275;29;20134;-62
2021/11/14 06:50:38;;;;;;;21.15;10.27;;;;;;;6.25;81.87;100140.13;4844937;29;20046;-61
2021/11/14 06:53:07;;;;;;;19.23;8.65;;;;;;;6.13;81.64;100142.34;4844846;29;20065;-62
2021/11/14 06:55:38;;;;;;;23.15;11.02;;;;;;;6.07;81.66;100144.72;4844769;29;20071;-62
2021/11/14 06:58:08;;;;;;;20.48;9.20;;;;;;;6.01;81.73;100144.59;4844619;29;20084;-62
2021/11/14 07:00:41;;;;;;;20.98;9.13;;;;;;;6.04;81.88;100149.75;4844910;29;20497;-61
2021/11/14 07:03:12;;;;;;;19.88;9.65;;;;;;;6.04;81.65;100155.66;4844462;29;20080;-61
2021/11/14 07:05:45;;;;;;;19.38;9.57;;;;;;;6.13;82.37;100154.16;4844409;29;20054;-62
2021/11/14 07:08:17;;;;;;;20.98;9.45;;;;;;;6.18;81.79;100158.53;4844302;29;20125;-61
2021/11/14 07:10:51;;;;;;;22.38;9.82;;;;;;;6.20;82.04;100167.03;4844942;29;20489;-62
2021/11/14 07:13:20;;;;;;;20.90;9.98;;;;;;;6.32;81.70;100169.84;4844281;29;20057;-61
2021/11/14 07:15:52;;;;;;;15.95;7.40;;;;;;;6.24;81.65;100163.72;4844275;29;20057;-61
2021/11/14 07:18:22;;;;;;;22.20;10.57;;;;;;;6.16;81.67;100159.31;4844109;29;20054;-61
2021/11/14 07:20:52;;;;;;;19.70;10.35;;;;;;;6.12;82.13;100163.44;4844134;29;20110;-62
2021/11/14 07:23:24;;;;;;;21.33;9.88;;;;;;;6.22;82.05;100164.50;4844367;29;20058;-62
2021/11/14 07:25:55;;;;;;;19.65;9.45;;;;;;;6.28;81.83;100160.47;4844368;29;20073;-62
2021/11/14 07:28:27;;;;;;;20.67;10.00;;;;;;;6.43;81.70;100170.97;4844080;29;20068;-62
2021/11/14 07:30:57;;;;;;;17.65;9.82;;;;;;;6.50;81.79;100172.81;4843819;29;20102;-62
2021/11/14 07:33:26;;;;;;;;;;;;;;;6.56;81.93;100172.97;4844537;29;20119;-62
2021/11/14 07:35:55;;;;;;;16.53;7.40;;;;;;;6.40;81.44;100155.69;4843807;29;19973;-62
2021/11/14 07:38:28;;;;;;;21.85;10.50;;;;;;;6.55;81.75;100170.41;4843735;29;20300;-61
2021/11/14 07:41:02;;;;;;;20.40;10.95;;;;;;;6.57;81.61;100161.16;4843702;29;20050;-62
2021/11/14 07:43:31;;;;;;;23.40;10.60;;;;;;;6.49;81.62;100170.25;4843679;29;20054;-62
2021/11/14 07:46:03;;;;;;;21.45;9.98;;;;;;;6.37;81.51;100165.75;4843890;29;20046;-62
2021/11/14 07:48:36;;;;;;;25.58;11.57;;;;;;;6.26;81.41;100163.78;4843649;29;20058;-61
2021/11/14 07:51:06;;;;;;;19.17;9.50;;;;;;;6.46;81.79;100171.03;4843796;29;20046;-62
2021/11/14 07:53:35;;;;;;;20.30;10.43;;;;;;;6.43;81.28;100168.41;4843440;29;20057;-62
2021/11/14 07:56:06;;;;;;;22.48;10.13;;;;;;;6.31;81.84;100165.59;4842971;29;20442;-62
2021/11/14 07:58:36;;;;;;;24.02;10.48;;;;;;;6.28;81.51;100155.41;4843909;29;20145;-61
2021/11/14 08:01:08;;;;;;;21.00;9.73;;;;;;;6.27;81.80;100153.69;4843508;29;20057;-61
2021/11/14 08:03:41;;;;;;;19.73;9.43;;;;;;;6.37;81.76;100164.88;4843986;29;20053;-62
2021/11/14 08:06:10;;;;;;;20.58;10.13;;;;;;;6.47;81.99;100171.91;4842431;29;20153;-61
2021/11/14 08:08:45;;;;;;;19.80;9.00;;;;;;;6.53;81.76;100160.22;4843605;29;20460;-62
2021/11/14 08:11:16;;;;;;;22.98;10.57;;;;;;;6.47;81.84;100167.69;4843241;29;20057;-63
2021/11/14 08:13:46;;;;;;;18.50;8.65;;;;;;;6.46;81.93;100165.09;4842392;29;20064;-62
2021/11/14 08:16:18;;;;;;;18.05;9.82;;;;;;;6.54;81.72;100156.88;4843303;29;20046;-63
2021/11/14 08:18:48;;;;;;;19.08;9.45;;;;;;;6.61;81.38;100163.78;4843272;29;20179;-62
2021/11/14 08:21:17;;;;;;;15.90;8.18;;;;;;;6.63;81.81;100159.59;4843495;29;20102;-62
2021/11/14 08:23:47;;;;;;;16.02;7.25;;;;;;;6.73;81.48;100166.59;4843385;29;20045;-62
2021/11/14 08:26:17;;;;;;;14.35;7.68;;;;;;;6.82;81.11;100165.06;4843125;29;20062;-62
2021/11/14 08:28:46;;;;;;;14.27;6.85;;;;;;;6.79;80.53;100158.25;4843097;29;20145;-63
2021/11/14 08:31:20;;;;;;;12.15;6.43;;;;;;;6.75;80.84;100167.50;4843025;29;20050;-63
2021/11/14 08:33:56;;;;;;;11.68;6.10;;;;;;;6.77;80.88;100161.59;4843657;29;20057;-62
2021/11/14 08:36:27;;;;;;;11.93;5.78;;;;;;;6.87;80.43;100163.50;4842955;29;20110;-63
2021/11/14 08:38:57;;;;;;;10.75;6.13;;;;;;;6.93;80.03;100158.56;4842934;29;20046;-63
2021/11/14 08:41:31;;;;;;;13.18;6.65;;;;;;;7.14;79.91;100164.09;4842872;29;20504;-62
2021/11/14 08:44:00;;;;;;;13.95;6.85;;;;;;;7.23;79.34;100161.72;4843491;29;20416;-63
2021/11/14 08:46:29;;;;;;;14.40;6.22;;;;;;;7.33;79.31;100172.13;4842779;29;20132;-62
2021/11/14 08:48:59;;;;;;;12.30;6.40;;;;;;;7.37;78.74;100173.00;4842994;29;20076;-62
2021/11/14 08:51:28;;;;;;;14.05;6.47;;;;;;;7.30;78.70;100169.50;4842328;29;20050;-63
2021/11/14 08:53:59;;;;;;;17.55;6.60;;;;;;;7.24;78.14;100176.16;4842572;29;20058;-62
2021/11/14 08:56:31;;;;;;;13.70;7.75;;;;;;;7.24;78.54;100176.16;4842216;29;20060;-62
2021/11/14 08:59:00;;;;;;;12.05;5.93;;;;;;;7.11;78.85;100184.31;4842642;29;20054;-63
2021/11/14 09:01:30;;;;;;;11.40;6.10;;;;;;;7.04;78.59;100185.00;4842900;29;20378;-62
2021/11/14 09:03:59;;;;;;;15.25;7.10;;;;;;;7.06;78.37;100189.31;4842562;29;20501;-62
2021/11/14 09:06:29;;;;;;;13.20;6.30;;;;;;;7.02;77.98;100194.28;4842593;29;20076;-62
2021/11/14 09:08:58;;;;;;;;;;;;;;;7.04;78.24;100197.72;4843352;29;20046;-62
2021/11/14 09:11:27;;;;;;;13.80;6.90;;;;;;;7.13;78.75;100193.69;4842850;29;20356;-62
2021/11/14 09:13:58;;;;;;;;;;;;;;;7.14;77.96;100190.34;4843170;29;20088;-63
2021/11/14 09:16:31;;;;;;;10.48;5.40;;;;;;;7.13;77.33;100200.44;4842619;29;19925;-62
2021/11/14 09:19:00;;;;;;;11.38;5.50;;;;;;;7.09;78.15;100201.19;4842464;29;20054;-63
2021/11/14 09:21:30;;;;;;;11.75;5.90;;;;;;;7.20;77.80;100194.66;4842896;29;20080;-63
2021/11/14 09:24:02;;;;;;;11.82;6.40;;;;;;;7.31;77.26;100193.22;4842470;29;20050;-62
2021/11/14 09:26:35;;;;;;;10.63;5.47;;;;;;;7.23;77.47;100185.44;4841726;29;20461;-62
2021/11/14 09:29:07;;;;;;;11.05;5.50;;;;;;;7.23;77.31;100190.53;4842470;29;20053;-63
2021/11/14 09:31:36;;;;;;;10.70;5.38;;;;;;;7.34;76.85;100188.22;4842263;29;20058;-62
2021/11/14 09:34:09;;;;;;;10.50;4.85;;;;;;;7.24;76.95;100179.56;4842440;29;20133;-62
2021/11/14 09:36:39;;;;;;;10.55;5.22;;;;;;;7.22;76.64;100178.63;4842387;29;20046;-62
2021/11/14 09:39:10;;;;;;;8.65;4.63;;;;;;;7.26;76.39;100185.50;4842605;29;20091;-63
2021/11/14 09:41:44;;;;;;;9.98;5.35;;;;;;;7.24;76.48;100183.75;4834317;29;20400;-63
2021/11/14 09:44:17;;;;;;;8.98;4.82;;;;;;;7.32;75.99;100180.53;4833013;29;20119;-63
2021/11/14 09:46:48;;;;;;;10.63;5.28;;;;;;;7.41;76.71;100180.72;4833019;29;20044;-63
2021/11/14 09:49:20;;;;;;;8.90;4.40;;;;;;;7.37;76.00;100183.16;4833190;29;20138;-63
2021/11/14 09:51:51;;;;;;;7.57;3.97;;;;;;;7.31;75.35;100183.06;4832937;29;20049;-62
2021/11/14 09:54:22;;;;;;;9.98;4.80;;;;;;;7.24;75.78;100183.75;4833813;29;20093;-63
2021/11/14 09:56:53;;;;;;;11.80;4.47;;;;;;;7.18;76.30;100191.25;4815229;29;20107;-64
2021/11/14 09:59:25;;;;;;;9.38;5.13;;;;;;;7.22;76.03;100187.97;4832711;29;20050;-62
2021/11/14 10:01:56;;;;;;;7.25;4.22;;;;;;;7.35;75.91;100179.75;4831691;29;20046;-63
2021/11/14 10:04:27;;;;;;;9.20;4.40;;;;;;;7.42;75.81;100176.50;4832679;29;20129;-62
2021/11/14 10:06:59;;;;;;;9.25;4.85;;;;;;;7.51;75.27;100175.84;4834421;29;20049;-62
2021/11/14 10:09:33;;;;;;;11.32;4.95;;;;;;;7.59;75.02;100169.22;4836918;29;20127;-62
2021/11/14 10:12:16;;;;;;;10.13;5.45;;;;;;;7.57;74.78;100170.88;4835771;29;20046;-62
2021/11/14 10:14:49;;;;;;;12.95;5.18;;;;;;;7.52;74.95;100173.31;4834125;29;20043;-63
2021/11/14 10:17:40;;;;;;;10.73;5.18;;;;;;;7.52;74.44;100170.78;4825041;29;20054;-62
2021/11/14 10:20:14;;;;;;;11.23;5.40;;;;;;;7.51;75.15;100174.13;4824610;29;20494;-62
2021/11/14 10:22:46;;;;;;;11.30;5.32;;;;;;;7.42;75.47;100168.88;4826817;29;20555;-63
2021/11/14 10:25:18;;;;;;;11.27;5.43;;;;;;;7.43;75.56;100170.63;4834025;29;20491;-63
2021/11/14 10:27:50;;;;;;;13.45;5.50;;;;;;;7.46;75.71;100168.13;4839306;29;20071;-62
2021/11/14 10:30:24;;;;;;;11.27;5.20;;;;;;;7.47;75.30;100164.75;4831165;29;20495;-62
2021/11/14 10:33:02;;;;;;;13.18;6.90;;;;;;;7.44;76.17;100174.84;4824704;29;20062;-62
2021/11/14 10:35:33;;;;;;;11.23;5.82;;;;;;;7.48;76.27;100176.63;4824658;29;20468;-62
2021/11/14 10:38:09;;;;;;;9.10;4.75;;;;;;;7.56;76.58;100169.16;4825912;29;20078;-62
2021/11/14 10:40:41;;;;;;;12.68;6.18;;;;;;;7.57;76.64;100175.94;4826020;29;20144;-62
2021/11/14 10:43:16;;;;;;;10.00;5.20;;;;;;;7.62;76.58;100170.13;4826573;29;20145;-62
2021/11/14 10:45:50;;;;;;;8.60;4.85;;;;;;;7.83;76.02;100175.59;4826541;29;20054;-62
2021/11/14 10:48:22;;;;;;;10.40;5.22;;;;;;;7.88;76.18;100173.16;4825298;29;20061;-62
2021/11/14 10:50:55;;;;;;;10.88;5.60;;;;;;;7.84;75.72;100184.09;4826708;29;20110;-62
2021/11/14 10:53:28;;;;;;;9.15;5.30;;;;;;;7.80;75.82;100175.53;4827134;29;20061;-63
2021/11/14 10:55:59;;;;;;;13.70;5.57;;;;;;;7.69;75.33;100177.03;4833931;29;20132;-62
2021/11/14 10:58:32;;;;;;;11.43;5.35;;;;;;;7.73;76.06;100178.81;4817574;29;20056;-64
2021/11/14 11:01:06;;;;;;;11.35;4.97;;;;;;;7.76;75.76;100178.88;4816584;29;20066;-62
2021/11/14 11:03:38;;;;;;;10.93;5.63;;;;;;;7.53;74.97;100151.34;4807077;29;20047;-62
2021/11/14 11:06:10;;;;;;;13.30;5.55;;;;;;;7.75;75.33;100177.13;4808596;29;20410;-63
2021/11/14 11:08:46;;;;;;;11.55;5.38;;;;;;;7.85;75.71;100173.94;4808345;29;20043;-62
2021/11/14 11:11:37;;;;;;;13.13;5.70;;;;;;;7.81;75.43;100177.28;4788047;30;20082;-62
2021/11/14 11:14:06;;;;;;;11.32;5.97;;;;;;;7.79;75.63;100171.31;4790337;29;20074;-63
2021/11/14 11:16:37;;;;;;;10.60;5.20;;;;;;;7.82;76.20;100178.97;4794444;29;20051;-62
2021/11/14 11:19:08;;;;;;;27.27;12.88;;;;;;;7.89;75.79;100179.94;4794667;29;20498;-62
2021/11/14 11:21:40;;;;;;;10.32;5.32;;;;;;;7.90;75.92;100187.59;4787911;30;20051;-63
2021/11/14 11:24:14;;;;;;;11.98;5.30;;;;;;;7.98;76.05;100178.44;4787817;30;20047;-62
2021/11/14 11:26:56;;;;;;;13.40;5.40;;;;;;;8.07;76.11;100181.13;4788347;30;20067;-62
2021/11/14 11:29:26;;;;;;;10.23;5.85;;;;;;;8.03;75.21;100187.00;4794534;29;20080;-63
2021/11/14 11:31:58;;;;;;;14.82;6.07;;;;;;;7.89;75.65;100193.50;4808171;29;20398;-62
2021/11/14 11:34:32;;;;;;;14.93;6.38;;;;;;;7.93;75.72;100191.88;4807650;29;20453;-62
2021/11/14 11:37:01;;;;;;;11.65;6.38;;;;;;;7.85;75.65;100196.81;4807852;29;20054;-62
2021/11/14 11:39:31;;;;;;;14.98;5.97;;;;;;;7.88;76.16;100199.41;4807737;29;20047;-62
2021/11/14 11:42:01;;;;;;;13.82;5.68;;;;;;;7.83;75.46;100185.78;4811325;29;20058;-63
2021/11/14 11:44:55;;;;;;;11.23;5.72;;;;;;;7.04;76.33;100065.75;4817311;29;20560;-63
2021/11/14 11:47:28;;;;;;;12.77;5.80;;;;;;;7.93;75.99;100197.81;4831607;29;20058;-63
2021/11/14 11:49:59;;;;;;;11.98;5.47;;;;;;;8.10;75.88;100190.50;4833633;29;20053;-67
2021/11/14 11:52:39;;;;;;;11.38;5.47;;;;;;;8.24;75.75;100193.25;4823795;29;20442;-63